Pagrindinis puslapis
METAR-TAF:

METAR-TAF

Oro uostai :

Fort Yukon, Aliaska, Jungtinės Amerikos Valstijos

platuma: 66-34N, ilguma: 145-16W, Aukštis: 433 m

Dabartinis oras

Ataskaita buvo paskelbta 25 minutes, ne 20:56 UTC
Ramus vėjas
Temperatūra 7°C
Drėgmė 93%
Slėgis 992 hPa
Matomumas: 16.1 km
Apsiniaukę ne aukštis 700 ft
lietus

METAR: PFYU 212056Z 00000KT 10SM -RA OVC007 07/06 A2930 RMK AO2 CIG 006V011 SLP945 P0003 60009 T00720061 53019

Laikas: 13:21 (21:21 UTC)


TAF: trūkstamas

Orai ataskaitas ir orų prognozės (METAR, TAF).

turimą stotys yra geltonos ir raudonos taškus žemėlapyje.

Perkelti pele per norėdami pamatyti stoties vardą.

Tada spustelėkite, norėdami matyti oro stebėjimo ir prognozės.

Norėdami pakeisti žemėlapį: spustelėkite ant žalios mygtukų su juodo kryžiaus žemyn,; žalią mygtuką su brūkšneliu, jei norite nutolinti; arba žalių rodyklių gretimoms žemėlapius.


METAR-TAF: